Time;durP1;ratioP1;P1;durP2;ratioP2;P2;SDS_P1;SDS_P2;PMS_P1;PMS_P2;Temp;Humidity;BMP_temperature;BMP_pressure;BME280_temperature;BME280_humidity;BME280_pressure;Samples;Min_cycle;Max_cycle;Signal;HPM_P1;HPM_P2
2023/08/05 06:48:18;;;;;;;;;;;;;;;;;;5776684;23;19921;-91
2023/08/05 06:50:44;;;;;;;;;;;;;;;;;;4978178;28;20001;-90
2023/08/05 06:53:09;;;;;;;;;;;;;;;;;;4976626;28;19914;-94
2023/08/05 06:55:34;;;;;;;;;;;;;;;;;;4959469;28;19914;-93
2023/08/05 06:58:00;;;;;;;;;;;;;;;;;;4951928;29;19921;-93
2023/08/05 07:00:27;;;;;;;;;;;;;;;;;;4941219;29;19915;-91
2023/08/05 07:02:52;;;;;;;;;;;;;;;;;;4954245;28;19924;-93
2023/08/05 07:05:18;;;;;;;;;;;;;;;;;;4960652;28;19918;-91
2023/08/05 07:07:43;;;;;;;;;;;;;;;;;;4960094;28;19950;-93
2023/08/05 07:10:11;;;;;;;;;;;;;;;;;;4958669;28;19929;-94
2023/08/05 07:12:37;;;;;;;;;;;;;;;;;;4942169;29;19920;-90
2023/08/05 07:15:02;;;;;;;;;;;;;;;;;;4957530;29;20363;-89
2023/08/05 07:17:28;;;;;;;;;;;;;;;;;;4940444;29;20428;-90
2023/08/05 07:19:53;;;;;;;;;;;;;;;;;;4957396;28;20329;-88
2023/08/05 07:22:18;;;;;;;;;;;;;;;;;;4940118;29;20365;-87
2023/08/05 07:24:44;;;;;;;;;;;;;;;;;;4957222;29;19918;-90
2023/08/05 07:27:09;;;;;;;;;;;;;;;;;;4959278;28;19969;-88
2023/08/05 07:29:35;;;;;;;;;;;;;;;;;;4958981;28;19914;-88
2023/08/05 07:32:01;;;;;;;;;;;;;;;;;;4976328;28;19918;-88
2023/08/05 07:34:31;;;;;;;;;;;;;;;;;;4977238;28;20012;-88
2023/08/05 07:36:56;;;;;;;;;;;;;;;;;;4976386;28;20383;-91
2023/08/05 07:39:23;;;;;;;;;;;;;;;;;;4976701;28;19918;-88
2023/08/05 07:41:49;;;;;;;;;;;;;;;;;;4958429;28;20356;-89
2023/08/05 07:44:14;;;;;;;;;;;;;;;;;;4946732;29;19921;-92
2023/08/05 07:46:41;;;;;;;;;;;;;;;;;;4955692;29;20307;-86
2023/08/05 07:49:07;;;;;;;;;;;;;;;;;;4954800;28;19925;-89
2023/08/05 07:51:32;;;;;;;;;;;;;;;;;;4956276;28;19922;-88
2023/08/05 07:53:58;;;;;;;;;;;;;;;;;;4956709;29;20014;-89
2023/08/05 07:56:23;;;;;;;;;;;;;;;;;;4956342;29;19961;-88
2023/08/05 07:58:49;;;;;;;;;;;;;;;;;;4939622;29;19950;-89
2023/08/05 08:01:21;;;;;;;;;;;;;;;;;;4956547;28;20296;-89
2023/08/05 08:03:48;;;;;;;;;;;;;;;;;;4956760;29;20406;-87
2023/08/05 10:31:03;;;;;;;;;;;;;;;;;;4967846;28;20005;-88
2023/08/05 10:33:29;;;;;;;;;;;;;;;;;;4957286;28;19926;-84
2023/08/05 10:36:06;;;;;;;;;;;;;;;;;;4958226;28;20292;-87
2023/08/05 10:38:41;;;;;;;;;;;;;;;;;;4958181;28;20339;-89
2023/08/05 10:41:07;;;;;;;;;;;;;;;;;;4957100;28;19914;-86
2023/08/05 10:43:35;;;;;;;;;;;;;;;;;;4958453;29;20001;-89
2023/08/05 10:46:06;;;;;;;;;;;;;;;;;;4958386;29;19958;-87
2023/08/05 10:48:50;;;;;;;;;;;;;;;;;;4958414;29;19911;-86
2023/08/05 10:51:24;;;;;;;;;;;;;;;;;;4958152;29;19914;-91
2023/08/05 10:53:55;;;;;;;;;;;;;;;;;;4958538;29;19914;-90
2023/08/05 10:56:28;;;;;;;;;;;;;;;;;;4957989;29;19960;-87
2023/08/05 10:58:53;;;;;;;;;;;;;;;;;;4958037;29;19924;-88
2023/08/05 11:01:19;;;;;;;;;;;;;;;;;;4957883;29;19936;-87
2023/08/05 11:03:45;;;;;;;;;;;;;;;;;;4956770;28;20349;-90
2023/08/05 11:06:11;;;;;;;;;;;;;;;;;;4957814;29;19915;-87
2023/08/05 11:08:37;;;;;;;;;;;;;;;;;;4957510;28;19915;-88
2023/08/05 11:11:03;;;;;;;;;;;;;;;;;;4957792;28;19958;-86
2023/08/05 11:13:33;;;;;;;;;;;;;;;;;;4957523;28;19921;-90
2023/08/05 11:16:02;;;;;;;;;;;;;;;;;;4958102;28;19915;-89
2023/08/05 11:18:27;;;;;;;;;;;;;;;;;;4958288;29;19921;-88
2023/08/05 11:20:53;;;;;;;;;;;;;;;;;;4957634;28;19915;-86
2023/08/05 11:23:18;;;;;;;;;;;;;;;;;;4957719;28;20277;-90
2023/08/05 11:25:45;;;;;;;;;;;;;;;;;;4957693;29;19914;-92
2023/08/05 11:28:10;;;;;;;;;;;;;;;;;;4958427;28;19914;-89
2023/08/05 11:30:38;;;;;;;;;;;;;;;;;;4960706;28;19917;-89
2023/08/05 11:33:05;;;;;;;;;;;;;;;;;;4976381;28;19936;-88
2023/08/05 11:35:30;;;;;;;;;;;;;;;;;;4977149;28;19914;-90
2023/08/05 11:37:56;;;;;;;;;;;;;;;;;;4976458;28;20276;-89
2023/08/05 11:40:22;;;;;;;;;;;;;;;;;;4976641;28;19914;-89
2023/08/05 11:42:48;;;;;;;;;;;;;;;;;;4976738;28;19925;-89
2023/08/05 11:45:14;;;;;;;;;;;;;;;;;;4976385;28;19957;-90
2023/08/05 11:47:40;;;;;;;;;;;;;;;;;;4976274;28;19914;-89
2023/08/05 11:50:07;;;;;;;;;;;;;;;;;;4959239;28;20280;-95
2023/08/05 11:52:33;;;;;;;;;;;;;;;;;;4958916;28;19936;-88
2023/08/05 11:54:59;;;;;;;;;;;;;;;;;;4976196;28;20308;-88
2023/08/05 11:57:24;;;;;;;;;;;;;;;;;;4976073;28;19946;-89
2023/08/05 11:59:51;;;;;;;;;;;;;;;;;;4976040;28;20262;-88
2023/08/05 12:02:17;;;;;;;;;;;;;;;;;;4958630;28;19921;-88
2023/08/05 12:04:46;;;;;;;;;;;;;;;;;;4976210;28;19914;-90
2023/08/05 12:07:18;;;;;;;;;;;;;;;;;;4958648;28;20391;-89
2023/08/05 12:09:44;;;;;;;;;;;;;;;;;;4975873;28;19914;-89
2023/08/05 12:12:16;;;;;;;;;;;;;;;;;;4958395;28;20003;-89
2023/08/05 12:14:44;;;;;;;;;;;;;;;;;;4976127;28;19977;-88
2023/08/05 12:17:10;;;;;;;;;;;;;;;;;;4975509;28;19914;-88
2023/08/05 12:19:36;;;;;;;;;;;;;;;;;;4976369;28;20027;-89
2023/08/05 12:22:01;;;;;;;;;;;;;;;;;;4959420;28;19914;-89
2023/08/05 12:24:26;;;;;;;;;;;;;;;;;;4975841;28;19914;-88
2023/08/05 12:26:52;;;;;;;;;;;;;;;;;;4975705;28;20365;-89
2023/08/05 12:29:17;;;;;;;;;;;;;;;;;;4975840;28;19936;-89
2023/08/05 12:31:42;;;;;;;;;;;;;;;;;;4975776;28;20288;-89
2023/08/05 12:34:07;;;;;;;;;;;;;;;;;;4975646;28;20301;-90
2023/08/05 12:36:33;;;;;;;;;;;;;;;;;;4975457;28;20009;-89
2023/08/05 12:38:58;;;;;;;;;;;;;;;;;;4958070;28;20012;-89
2023/08/05 12:41:23;;;;;;;;;;;;;;;;;;4975719;28;20008;-88
2023/08/05 12:43:49;;;;;;;;;;;;;;;;;;4959310;28;19981;-89
2023/08/05 12:46:14;;;;;;;;;;;;;;;;;;4958462;28;19970;-88
2023/08/05 12:48:39;;;;;;;;;;;;;;;;;;4958289;28;20453;-89
2023/08/05 12:51:05;;;;;;;;;;;;;;;;;;4958237;28;20513;-90
2023/08/05 12:53:30;;;;;;;;;;;;;;;;;;4975479;28;19914;-89
2023/08/05 12:55:55;;;;;;;;;;;;;;;;;;4975372;28;19918;-90
2023/08/05 12:58:21;;;;;;;;;;;;;;;;;;4957976;28;19921;-89
2023/08/05 13:00:46;;;;;;;;;;;;;;;;;;4975468;28;19914;-90
2023/08/05 13:03:11;;;;;;;;;;;;;;;;;;4975173;28;19957;-87
2023/08/05 13:05:37;;;;;;;;;;;;;;;;;;4958191;28;19914;-88
2023/08/05 13:08:02;;;;;;;;;;;;;;;;;;4975121;28;19914;-88
2023/08/05 13:10:27;;;;;;;;;;;;;;;;;;4975424;28;20013;-89
2023/08/05 13:12:53;;;;;;;;;;;;;;;;;;4975284;28;19937;-88
2023/08/05 13:15:18;;;;;;;;;;;;;;;;;;4975829;28;19914;-92
2023/08/05 13:17:43;;;;;;;;;;;;;;;;;;4958575;28;19921;-90
2023/08/05 13:20:09;;;;;;;;;;;;;;;;;;4957663;28;20284;-90
2023/08/05 13:22:34;;;;;;;;;;;;;;;;;;4974835;28;20284;-88
2023/08/05 13:25:00;;;;;;;;;;;;;;;;;;4975157;28;19973;-88
2023/08/05 13:27:26;;;;;;;;;;;;;;;;;;4974831;28;19918;-90
2023/08/05 13:29:51;;;;;;;;;;;;;;;;;;4957697;28;19929;-88
2023/08/05 13:32:17;;;;;;;;;;;;;;;;;;4957279;28;19918;-91
2023/08/05 13:34:42;;;;;;;;;;;;;;;;;;4957659;28;20498;-91
2023/08/05 13:37:07;;;;;;;;;;;;;;;;;;4974805;28;19969;-89
2023/08/05 13:39:33;;;;;;;;;;;;;;;;;;4957505;28;19921;-90
2023/08/05 13:41:59;;;;;;;;;;;;;;;;;;4975264;28;20022;-91
2023/08/05 13:44:26;;;;;;;;;;;;;;;;;;4975032;28;19914;-90
2023/08/05 13:46:51;;;;;;;;;;;;;;;;;;4975090;28;20013;-92
2023/08/05 13:49:16;;;;;;;;;;;;;;;;;;4957910;28;20447;-93
2023/08/05 13:51:42;;;;;;;;;;;;;;;;;;4974940;28;19920;-92
2023/08/05 13:54:07;;;;;;;;;;;;;;;;;;4975191;28;19918;-91
2023/08/05 13:56:33;;;;;;;;;;;;;;;;;;4978208;28;19957;-93
2023/08/05 13:58:58;;;;;;;;;;;;;;;;;;4979710;28;20022;-93
2023/08/05 14:01:23;;;;;;;;;;;;;;;;;;4960893;28;19921;-90
2023/08/05 14:03:49;;;;;;;;;;;;;;;;;;4960486;28;19913;-92
2023/08/05 14:06:14;;;;;;;;;;;;;;;;;;4978266;28;19914;-90
2023/08/05 14:08:39;;;;;;;;;;;;;;;;;;4961453;28;19941;-92
2023/08/05 14:11:05;;;;;;;;;;;;;;;;;;4961619;28;19914;-92
2023/08/05 14:13:30;;;;;;;;;;;;;;;;;;4978139;28;19914;-90
2023/08/05 14:15:56;;;;;;;;;;;;;;;;;;4960581;28;19918;-91
2023/08/05 14:18:21;;;;;;;;;;;;;;;;;;4960841;28;20412;-92
2023/08/05 14:20:47;;;;;;;;;;;;;;;;;;4960938;28;19914;-91
2023/08/05 14:23:12;;;;;;;;;;;;;;;;;;4960448;28;19921;-90
2023/08/05 14:25:38;;;;;;;;;;;;;;;;;;4960273;28;19968;-90
2023/08/05 14:28:04;;;;;;;;;;;;;;;;;;4976635;28;19995;-91
2023/08/05 14:30:29;;;;;;;;;;;;;;;;;;4958553;28;19918;-90
2023/08/05 17:19:00;;;;;;;;;;;;;;;;;;4953838;29;19961;-88
2023/08/05 17:21:27;;;;;;;;;;;;;;;;;;4956348;29;19918;-88
2023/08/05 17:23:52;;;;;;;;;;;;;;;;;;4938722;29;20324;-88
2023/08/05 17:26:18;;;;;;;;;;;;;;;;;;4923390;29;19962;-86
2023/08/05 17:28:43;;;;;;;;;;;;;;;;;;4936430;29;19915;-87
2023/08/05 17:31:08;;;;;;;;;;;;;;;;;;4920195;29;19914;-85
2023/08/05 17:33:34;;;;;;;;;;;;;;;;;;4940099;29;19915;-87
2023/08/05 17:35:59;;;;;;;;;;;;;;;;;;4922884;29;19962;-86
2023/08/05 17:38:24;;;;;;;;;;;;;;;;;;4940078;29;19965;-87
2023/08/05 17:40:50;;;;;;;;;;;;;;;;;;4940011;29;19953;-85
2023/08/05 17:43:15;;;;;;;;;;;;;;;;;;4940042;29;20001;-85
2023/08/05 17:45:40;;;;;;;;;;;;;;;;;;4940125;29;19922;-86
2023/08/05 17:48:06;;;;;;;;;;;;;;;;;;4940120;29;19922;-83
2023/08/05 17:50:31;;;;;;;;;;;;;;;;;;4940220;29;19970;-87
2023/08/05 17:52:56;;;;;;;;;;;;;;;;;;4939977;29;19915;-87
2023/08/05 17:55:22;;;;;;;;;;;;;;;;;;4939611;29;20079;-88
2023/08/05 17:57:47;;;;;;;;;;;;;;;;;;4940189;29;19914;-88
2023/08/05 18:00:12;;;;;;;;;;;;;;;;;;4940285;29;19919;-87
2023/08/05 18:02:38;;;;;;;;;;;;;;;;;;4922835;29;20001;-84
2023/08/05 18:05:03;;;;;;;;;;;;;;;;;;4939875;29;19914;-86
2023/08/05 18:07:29;;;;;;;;;;;;;;;;;;4940011;29;19915;-92
2023/08/05 18:09:54;;;;;;;;;;;;;;;;;;4940082;29;19915;-86
2023/08/05 18:12:19;;;;;;;;;;;;;;;;;;4940338;29;19921;-87
2023/08/05 18:14:46;;;;;;;;;;;;;;;;;;4939509;29;19922;-86
2023/08/05 18:17:12;;;;;;;;;;;;;;;;;;4939982;29;19921;-86
2023/08/05 18:19:37;;;;;;;;;;;;;;;;;;4939568;29;19919;-86
2023/08/05 18:22:03;;;;;;;;;;;;;;;;;;4939628;29;20365;-86
2023/08/05 18:24:28;;;;;;;;;;;;;;;;;;4922447;29;19911;-86
2023/08/05 18:26:54;;;;;;;;;;;;;;;;;;4922458;29;19915;-86
2023/08/05 18:29:19;;;;;;;;;;;;;;;;;;4939442;29;19997;-86
2023/08/05 18:31:44;;;;;;;;;;;;;;;;;;4939146;29;19921;-87
2023/08/05 18:34:10;;;;;;;;;;;;;;;;;;4939303;29;19915;-88
2023/08/05 18:36:35;;;;;;;;;;;;;;;;;;4939400;29;19970;-85
2023/08/05 18:39:00;;;;;;;;;;;;;;;;;;4921956;29;19969;-85
2023/08/05 18:41:26;;;;;;;;;;;;;;;;;;4939392;29;19914;-86
2023/08/05 18:43:51;;;;;;;;;;;;;;;;;;4921053;29;19915;-87
2023/08/05 18:46:16;;;;;;;;;;;;;;;;;;4938998;29;20266;-87
2023/08/05 18:48:42;;;;;;;;;;;;;;;;;;4938840;29;19918;-87
2023/08/05 18:51:07;;;;;;;;;;;;;;;;;;4921959;29;19985;-88
2023/08/05 18:53:32;;;;;;;;;;;;;;;;;;4938861;29;19918;-87
2023/08/05 18:55:58;;;;;;;;;;;;;;;;;;4938864;29;19993;-87
2023/08/05 18:58:23;;;;;;;;;;;;;;;;;;4938686;29;20361;-87
2023/08/05 19:00:49;;;;;;;;;;;;;;;;;;4938567;29;19999;-87
2023/08/05 19:03:15;;;;;;;;;;;;;;;;;;4921808;29;19915;-86
2023/08/05 19:05:41;;;;;;;;;;;;;;;;;;4938526;29;19937;-87
2023/08/05 19:08:06;;;;;;;;;;;;;;;;;;4938569;29;19922;-87
2023/08/05 19:10:37;;;;;;;;;;;;;;;;;;4921724;29;19915;-86
2023/08/05 19:13:02;;;;;;;;;;;;;;;;;;4921599;29;19925;-88
2023/08/05 19:15:28;;;;;;;;;;;;;;;;;;4921531;29;19914;-87
2023/08/05 19:17:53;;;;;;;;;;;;;;;;;;4938359;29;19914;-86
2023/08/05 19:20:18;;;;;;;;;;;;;;;;;;4921509;29;19970;-87
2023/08/05 19:22:45;;;;;;;;;;;;;;;;;;4938603;29;20429;-87
2023/08/05 19:25:11;;;;;;;;;;;;;;;;;;4938203;29;19974;-87
2023/08/05 19:27:36;;;;;;;;;;;;;;;;;;4921247;29;20357;-88
2023/08/05 19:30:01;;;;;;;;;;;;;;;;;;4938361;29;19914;-87
2023/08/05 19:32:27;;;;;;;;;;;;;;;;;;4938185;29;19915;-87
2023/08/05 19:34:52;;;;;;;;;;;;;;;;;;4937797;29;19914;-85
2023/08/05 19:37:18;;;;;;;;;;;;;;;;;;4921141;29;19915;-86
2023/08/05 19:39:43;;;;;;;;;;;;;;;;;;4937899;29;19911;-86
2023/08/05 19:42:08;;;;;;;;;;;;;;;;;;4937818;29;19915;-86
2023/08/05 19:44:34;;;;;;;;;;;;;;;;;;4920962;29;19958;-86
2023/08/05 19:46:59;;;;;;;;;;;;;;;;;;4937864;29;19914;-86
2023/08/05 19:49:24;;;;;;;;;;;;;;;;;;4937905;29;19998;-86
2023/08/05 19:51:50;;;;;;;;;;;;;;;;;;4920576;29;19911;-86
2023/08/05 19:54:15;;;;;;;;;;;;;;;;;;4920250;29;19915;-86
2023/08/05 19:56:40;;;;;;;;;;;;;;;;;;4937576;29;20365;-85
2023/08/05 19:59:06;;;;;;;;;;;;;;;;;;4937493;29;20017;-86
2023/08/05 20:01:31;;;;;;;;;;;;;;;;;;4920485;29;19915;-86
2023/08/05 20:03:56;;;;;;;;;;;;;;;;;;4920515;29;20334;-86
2023/08/05 20:06:22;;;;;;;;;;;;;;;;;;4920227;29;19921;-86
2023/08/05 20:08:47;;;;;;;;;;;;;;;;;;4937251;29;19915;-85
2023/08/05 20:11:13;;;;;;;;;;;;;;;;;;4920423;29;19925;-85
2023/08/05 20:13:39;;;;;;;;;;;;;;;;;;4937530;29;19922;-85
2023/08/05 20:16:04;;;;;;;;;;;;;;;;;;4920263;29;19922;-86
2023/08/05 20:18:29;;;;;;;;;;;;;;;;;;4937074;29;19918;-86
2023/08/05 20:20:55;;;;;;;;;;;;;;;;;;4920111;29;19915;-87
2023/08/05 20:23:20;;;;;;;;;;;;;;;;;;4937369;29;20032;-86
2023/08/05 20:25:47;;;;;;;;;;;;;;;;;;4937296;29;20356;-86
2023/08/05 20:28:12;;;;;;;;;;;;;;;;;;4937089;29;19917;-85
2023/08/05 20:30:38;;;;;;;;;;;;;;;;;;4937175;29;19915;-86
2023/08/05 20:33:03;;;;;;;;;;;;;;;;;;4919988;29;19914;-85
2023/08/05 20:35:31;;;;;;;;;;;;;;;;;;4936996;29;19950;-85
2023/08/05 20:37:57;;;;;;;;;;;;;;;;;;4936752;29;20369;-84
2023/08/05 20:40:22;;;;;;;;;;;;;;;;;;4937364;29;19978;-84
2023/08/05 20:42:47;;;;;;;;;;;;;;;;;;4937133;29;19970;-85
2023/08/05 20:45:13;;;;;;;;;;;;;;;;;;4919534;29;19926;-85
2023/08/05 20:47:38;;;;;;;;;;;;;;;;;;4936812;29;19922;-85
2023/08/05 20:50:05;;;;;;;;;;;;;;;;;;4937053;29;20269;-85
2023/08/05 20:52:30;;;;;;;;;;;;;;;;;;4919852;29;19915;-85
2023/08/05 20:54:57;;;;;;;;;;;;;;;;;;4936479;29;19925;-85
2023/08/05 20:57:23;;;;;;;;;;;;;;;;;;4936938;29;20401;-85
2023/08/05 20:59:48;;;;;;;;;;;;;;;;;;4936679;29;19922;-84
2023/08/05 21:02:14;;;;;;;;;;;;;;;;;;4936824;29;19915;-84
2023/08/05 21:04:39;;;;;;;;;;;;;;;;;;4936640;29;20284;-84
2023/08/05 21:07:04;;;;;;;;;;;;;;;;;;4939284;29;20388;-85
2023/08/05 21:09:30;;;;;;;;;;;;;;;;;;4940691;29;19922;-84
2023/08/05 21:11:55;;;;;;;;;;;;;;;;;;4940629;29;19922;-84
2023/08/05 21:14:21;;;;;;;;;;;;;;;;;;4940515;29;19921;-85
2023/08/05 21:16:47;;;;;;;;;;;;;;;;;;4940632;29;20009;-86
2023/08/05 21:19:14;;;;;;;;;;;;;;;;;;4940359;29;19918;-86
2023/08/05 21:21:39;;;;;;;;;;;;;;;;;;4940563;29;19915;-87
2023/08/05 21:24:05;;;;;;;;;;;;;;;;;;4940565;29;20357;-86
2023/08/05 21:26:30;;;;;;;;;;;;;;;;;;4940590;29;19915;-86
2023/08/05 21:28:55;;;;;;;;;;;;;;;;;;4940523;29;20015;-86
2023/08/05 21:31:21;;;;;;;;;;;;;;;;;;4923082;29;19922;-86
2023/08/05 21:33:46;;;;;;;;;;;;;;;;;;4940113;29;19915;-85
2023/08/05 21:36:11;;;;;;;;;;;;;;;;;;4923064;29;20353;-86
2023/08/05 21:38:37;;;;;;;;;;;;;;;;;;4923103;29;19917;-85
2023/08/05 21:41:02;;;;;;;;;;;;;;;;;;4940161;29;20284;-85
2023/08/05 21:43:27;;;;;;;;;;;;;;;;;;4940216;29;19921;-85
2023/08/05 21:45:53;;;;;;;;;;;;;;;;;;4922862;29;20289;-86
